메인 페이지
METAR-TAF:

METAR-TAF

공항 :

Matamoros, 멕시코

위도: 25-46N, 경도: 097-32W, 고도: 8m

현재 날씨관측

예보는 7 시간 25분 전, 01:41시(UTC)에 발표되었습니다.
동남동14kt
온도 29°C
습도 79%
기압 1012 hPa
시정: 14.5km
고도 1500ft 상공 구름 조금
고도 20000ft 상공 구름 보통

METAR: MMMA 300141Z 11014KT 9SM FEW015 SCT200 29/25 A2989 RMK 8/101 HZY

시각: 04:06 (09:06 UTC)

예보

예보는 3 시간 20분 전, 05:46시(UTC)에 발표되었습니다.
예보 대상 시간: 30일 06시부터 31일 06시까지 (UTC)
동남동10kt
시정: 8.0km
고도 1500ft 상공 구름 많음
연무
일시적
30일 11시부터 30일 15시까지 (UTC)
시정: 3.2km
고도 1000ft 상공 구름 많음
박무
30일 1500시부터 (UTC)
15kt
시정: 9.7km
고도 3000ft 상공 구름 보통
연무
전환 중
30일 18시부터 30일 19시까지 (UTC)
남남동15kt, 순간 최대 풍속 25kt
고도 2000ft 상공 구름 보통

TAF: MMMA 300546Z 3006/3106 11010KT 5SM HZ BKN015 TEMPO 3011/3015 2SM BR BKN010 FM301500 17015KT 6SM HZ SCT030 BECMG 3018/3019 15015G25KT SCT020

4,000개 이상의 공항 관측 자료 및 예보 (METAR 및 TAF 보고).

지도상에서 검색 가능한 기상관측소가 노란 점과 빨간 점으로 표시되어 있습니다.

기상관측소 명을 보려면 표시 위로 마우스를 이동하세요.

날씨 관측과 예보를 보려면 클릭하세요.

지도 변경 : 확대하려면 엑스 표시가 있는 녹색 버튼, 축소하려면 빼기 표시가 있는 녹색 버튼, 다음 페이지의 지도를 보려면 녹색 화살표를 클릭하세요.


METAR-TAF: